createdAt,value
2023-02-21T07:47:15.059Z,5.75
2023-02-21T07:49:42.470Z,5.83
2023-02-21T07:52:09.764Z,5.81
2023-02-21T07:54:37.075Z,6.02
2023-02-21T07:57:04.954Z,6.11
2023-02-21T07:59:32.423Z,6.29
2023-02-21T08:01:59.783Z,6.34
2023-02-21T08:04:27.163Z,6.38
2023-02-21T08:07:01.596Z,6.39
2023-02-21T08:09:28.906Z,6.51
2023-02-21T08:11:56.199Z,6.56
2023-02-21T08:14:23.543Z,6.73
2023-02-21T08:16:50.994Z,6.84
2023-02-21T08:19:18.343Z,6.85
2023-02-21T08:21:50.090Z,6.90
2023-02-21T08:24:19.164Z,7.15
2023-02-21T08:26:46.938Z,7.05
2023-02-21T08:29:18.028Z,7.19
2023-02-21T08:31:45.554Z,7.35
2023-02-21T08:34:14.259Z,7.44
2023-02-21T08:36:44.098Z,7.56
2023-02-21T08:39:12.126Z,7.62
2023-02-21T08:41:45.040Z,7.71
2023-02-21T08:44:16.896Z,7.82
2023-02-21T08:46:45.194Z,7.97
2023-02-21T08:49:12.486Z,8.05
2023-02-21T08:51:40.332Z,8.17
2023-02-21T08:54:08.438Z,8.34
2023-02-21T08:56:35.823Z,8.53
2023-02-21T08:59:04.539Z,8.51
2023-02-21T09:01:36.151Z,8.62
2023-02-21T09:04:06.641Z,8.82
2023-02-21T09:06:34.097Z,8.78
2023-02-21T09:09:01.415Z,8.77
2023-02-21T09:11:29.414Z,9.02
2023-02-21T09:13:56.714Z,9.25
2023-02-21T09:16:24.159Z,9.49
2023-02-21T09:19:01.335Z,9.62
2023-02-21T09:21:29.220Z,9.79
2023-02-21T09:23:59.271Z,9.92
2023-02-21T09:26:27.112Z,10.18
2023-02-21T09:28:54.473Z,10.30
2023-02-21T09:31:22.178Z,10.46
2023-02-21T09:33:49.478Z,10.69
2023-02-21T09:36:17.169Z,10.92
2023-02-21T09:38:44.501Z,11.13
2023-02-21T09:41:14.639Z,11.28
2023-02-21T09:43:48.545Z,11.41
2023-02-21T09:46:50.687Z,11.67
2023-02-21T09:49:42.049Z,11.92
2023-02-21T09:52:41.213Z,11.97
2023-02-21T09:55:39.713Z,12.22
2023-02-21T09:58:19.934Z,12.47
2023-02-21T10:00:47.614Z,12.76
2023-02-21T10:03:49.325Z,12.56
2023-02-21T10:06:53.098Z,13.05
2023-02-21T10:10:02.243Z,13.27
2023-02-21T10:13:18.685Z,13.43
2023-02-21T10:16:15.943Z,13.69
2023-02-21T10:19:13.215Z,13.91
2023-02-21T10:21:49.499Z,14.09
2023-02-21T10:24:25.722Z,14.29
2023-02-21T10:27:17.011Z,14.47
2023-02-21T10:30:19.166Z,14.68
2023-02-21T10:32:46.586Z,14.75
2023-02-21T10:35:14.071Z,15.13
2023-02-21T10:38:07.806Z,15.18
2023-02-21T10:40:59.524Z,15.52
2023-02-21T10:43:35.686Z,15.38
2023-02-21T10:46:30.824Z,15.60
2023-02-21T10:49:28.944Z,15.59
2023-02-21T10:52:48.750Z,15.92
2023-02-21T10:55:32.623Z,16.24
2023-02-21T10:58:18.759Z,16.49
2023-02-21T11:00:48.290Z,17.06
2023-02-21T11:03:27.511Z,17.09
2023-02-21T11:05:58.130Z,17.25
2023-02-21T11:08:42.389Z,17.20
2023-02-21T11:11:11.717Z,17.68
2023-02-21T11:13:39.246Z,17.73
2023-02-21T11:16:24.682Z,18.19
2023-02-21T11:19:07.927Z,18.26
2023-02-21T11:21:35.279Z,18.38
2023-02-21T11:24:08.143Z,18.69
2023-02-21T11:26:52.021Z,18.63
2023-02-21T11:29:25.890Z,18.74
2023-02-21T11:31:56.912Z,19.02
2023-02-21T11:34:30.168Z,19.39
2023-02-21T11:37:04.610Z,19.68
2023-02-21T11:39:34.589Z,19.67
2023-02-21T11:42:32.944Z,20.32
2023-02-21T11:45:29.609Z,20.34
2023-02-21T11:48:15.852Z,19.81
2023-02-21T11:50:53.482Z,20.14
2023-02-21T11:53:42.394Z,20.25
2023-02-21T11:57:14.415Z,20.46
2023-02-21T12:00:47.114Z,20.72
2023-02-21T12:04:15.361Z,20.92
2023-02-21T12:07:30.337Z,21.24
2023-02-21T12:10:41.429Z,20.88
2023-02-21T12:14:04.210Z,21.21
2023-02-21T12:16:56.327Z,21.76
2023-02-21T12:20:15.369Z,21.65
2023-02-21T12:23:55.556Z,21.90
2023-02-21T12:27:46.513Z,22.12
2023-02-21T12:31:11.956Z,22.07
2023-02-21T12:34:22.736Z,22.60
2023-02-21T12:37:33.494Z,22.68
2023-02-21T12:40:48.568Z,22.20
2023-02-21T12:44:08.156Z,22.96
2023-02-21T12:47:06.648Z,22.66
2023-02-21T12:50:21.758Z,23.15
2023-02-21T12:53:18.027Z,23.24
2023-02-21T12:56:19.331Z,23.28
2023-02-21T12:59:35.103Z,23.46
2023-02-21T13:02:50.753Z,23.08
2023-02-21T13:05:33.927Z,23.38
2023-02-21T13:09:06.649Z,23.51
2023-02-21T13:12:21.382Z,23.65
2023-02-21T13:15:13.363Z,23.42
2023-02-21T13:17:42.673Z,23.72
2023-02-21T13:20:22.251Z,23.85
2023-02-21T13:23:03.187Z,23.73
2023-02-21T13:26:04.312Z,23.29
2023-02-21T13:28:36.704Z,23.82
2023-02-21T13:31:17.753Z,23.70
2023-02-21T13:33:53.101Z,24.02
2023-02-21T13:37:06.086Z,23.72
2023-02-21T13:39:38.781Z,24.02
2023-02-21T13:42:19.500Z,23.71
2023-02-21T13:45:16.031Z,23.61
2023-02-21T13:47:59.914Z,23.27
2023-02-21T13:50:39.522Z,23.41
2023-02-21T13:53:24.572Z,24.14
2023-02-21T13:56:06.423Z,23.37
2023-02-21T13:58:49.240Z,23.56
2023-02-21T14:01:43.645Z,23.94
2023-02-21T14:04:57.652Z,22.93
2023-02-21T14:07:59.016Z,23.41
2023-02-21T14:10:55.354Z,23.03
2023-02-21T14:13:58.909Z,22.75
2023-02-21T14:16:59.127Z,21.85
2023-02-21T14:19:48.830Z,22.26
2023-02-21T14:22:32.184Z,21.73
2023-02-21T14:25:24.773Z,21.88
2023-02-21T14:27:53.915Z,21.62
2023-02-21T14:30:33.779Z,21.62
2023-02-21T14:33:26.975Z,21.28
2023-02-21T14:36:08.254Z,21.28
2023-02-21T14:38:44.409Z,21.20
2023-02-21T14:41:20.888Z,20.80
2023-02-21T14:44:25.677Z,20.83
2023-02-21T14:47:52.096Z,20.76
2023-02-21T14:51:06.649Z,20.87
2023-02-21T14:54:25.960Z,20.84
2023-02-21T14:57:48.989Z,20.99
2023-02-21T15:00:19.163Z,20.72
2023-02-21T15:03:07.297Z,20.54
2023-02-21T15:06:18.332Z,20.68
2023-02-21T15:08:50.672Z,20.46
2023-02-21T15:11:39.892Z,20.29
2023-02-21T15:14:29.416Z,20.35
2023-02-21T15:17:13.153Z,20.22
2023-02-21T15:19:40.546Z,20.04
2023-02-21T15:22:27.999Z,20.10
2023-02-21T15:25:10.856Z,20.11
2023-02-21T15:27:57.561Z,20.32
2023-02-21T15:30:41.903Z,20.21
2023-02-21T15:33:21.333Z,20.24
2023-02-21T15:36:02.165Z,20.21
2023-02-21T15:39:14.192Z,20.22
2023-02-21T15:41:50.215Z,20.14
2023-02-21T15:44:37.570Z,20.05
2023-02-21T15:47:26.759Z,20.14
2023-02-21T15:50:29.366Z,20.05
2023-02-21T15:52:56.771Z,20.49
2023-02-21T15:55:31.123Z,20.45
2023-02-21T15:58:26.957Z,20.39
2023-02-21T16:01:11.306Z,20.65
2023-02-21T16:03:43.529Z,20.74
2023-02-21T16:06:32.309Z,21.05
2023-02-21T16:09:34.843Z,20.79
2023-02-21T16:12:38.210Z,20.81
2023-02-21T16:15:19.025Z,20.62
2023-02-21T16:18:01.537Z,20.63
2023-02-21T16:20:40.456Z,20.51
2023-02-21T16:23:33.986Z,20.42
2023-02-21T16:26:09.837Z,20.50
2023-02-21T16:28:40.957Z,20.30
2023-02-21T16:31:26.647Z,20.28
2023-02-21T16:33:54.018Z,20.13
2023-02-21T16:36:30.554Z,20.01
2023-02-21T16:38:59.458Z,19.65
2023-02-21T16:41:27.342Z,19.73
2023-02-21T16:43:54.656Z,19.55
2023-02-21T16:46:30.198Z,19.56
2023-02-21T16:48:59.011Z,19.17
2023-02-21T16:51:33.600Z,19.11
2023-02-21T16:54:02.479Z,19.06
2023-02-21T16:56:30.000Z,18.88
2023-02-21T16:58:57.620Z,18.59
2023-02-21T17:01:32.366Z,18.93
2023-02-21T17:04:01.596Z,18.83
2023-02-21T17:06:29.511Z,18.62
2023-02-21T17:08:58.799Z,18.39
2023-02-21T17:11:27.425Z,18.47
2023-02-21T17:13:54.722Z,18.28
2023-02-21T17:16:22.161Z,18.13
2023-02-21T17:18:49.530Z,18.02
2023-02-21T17:21:17.140Z,17.99
2023-02-21T17:23:44.717Z,17.83
2023-02-21T17:26:13.107Z,17.60
2023-02-21T17:28:40.521Z,17.48
2023-02-21T17:31:07.893Z,17.47
2023-02-21T17:33:35.684Z,17.21
2023-02-21T17:36:03.195Z,17.08
2023-02-21T17:38:30.504Z,17.06
2023-02-21T17:40:58.265Z,17.02
2023-02-21T17:43:25.588Z,16.84
2023-02-21T17:45:52.927Z,16.73
2023-02-21T17:48:20.264Z,16.81
2023-02-21T17:50:47.597Z,16.76
2023-02-21T17:53:14.938Z,16.57
2023-02-21T17:55:43.124Z,16.40
2023-02-21T17:58:10.553Z,16.63
2023-02-21T18:00:39.251Z,16.24
2023-02-21T18:03:07.579Z,16.10
2023-02-21T18:05:37.423Z,16.08
2023-02-21T18:08:05.641Z,16.06
2023-02-21T18:10:32.966Z,15.93
2023-02-21T18:13:00.241Z,15.82
2023-02-21T18:15:28.945Z,15.73
2023-02-21T18:18:03.915Z,15.60
2023-02-21T18:20:32.089Z,15.77
2023-02-21T18:22:59.597Z,15.54
2023-02-21T18:25:27.337Z,15.67
2023-02-21T18:27:55.120Z,15.74
2023-02-21T18:30:23.279Z,15.56
2023-02-21T18:32:51.063Z,15.56
2023-02-21T18:35:18.745Z,15.17
2023-02-21T18:37:47.246Z,15.25
2023-02-21T18:40:18.534Z,15.04
2023-02-21T18:42:47.754Z,15.16
2023-02-21T18:45:15.144Z,14.84
2023-02-21T18:47:42.470Z,14.95
2023-02-21T18:50:10.300Z,14.72
2023-02-21T18:52:37.579Z,14.83
2023-02-21T18:55:06.113Z,14.80
2023-02-21T18:57:34.250Z,14.95
2023-02-21T19:00:01.613Z,14.73
2023-02-21T19:02:29.101Z,14.65
2023-02-21T19:04:56.418Z,14.30
2023-02-21T19:07:24.302Z,14.43
2023-02-21T19:09:51.645Z,14.19
2023-02-21T19:12:19.335Z,14.33
2023-02-21T19:14:46.661Z,14.28
2023-02-21T19:17:13.997Z,14.25
2023-02-21T19:19:41.441Z,13.97
2023-02-21T19:22:08.894Z,13.68
2023-02-21T19:24:36.294Z,13.81
2023-02-21T19:27:04.024Z,13.80
2023-02-21T19:29:31.354Z,13.86
2023-02-21T19:31:58.811Z,13.50
2023-02-21T19:34:26.307Z,13.48
2023-02-21T19:36:53.710Z,13.52
2023-02-21T19:39:21.046Z,13.63
2023-02-21T19:41:48.503Z,13.85
2023-02-21T19:44:16.074Z,13.67
2023-02-21T19:46:43.648Z,13.53
2023-02-21T19:49:18.094Z,13.50
2023-02-21T19:51:50.397Z,13.53
2023-02-21T19:54:25.125Z,13.36
2023-02-21T19:56:52.515Z,13.32
2023-02-21T19:59:19.813Z,13.35
2023-02-21T20:01:47.188Z,13.44
2023-02-21T20:04:16.873Z,13.34
2023-02-21T20:06:46.192Z,13.53
2023-02-21T20:09:13.952Z,13.30
2023-02-21T20:11:41.363Z,13.27
2023-02-21T20:14:11.277Z,13.24
2023-02-21T20:16:43.920Z,13.10
2023-02-21T20:19:13.654Z,13.20
2023-02-21T20:21:41.434Z,13.22
2023-02-21T20:24:10.253Z,13.23
2023-02-21T20:26:38.902Z,12.95
2023-02-21T20:29:07.032Z,13.01
2023-02-21T20:31:37.380Z,12.74
2023-02-21T20:34:06.844Z,12.88
2023-02-21T20:36:39.231Z,12.77
2023-02-21T20:39:19.772Z,13.01
2023-02-21T20:41:47.347Z,12.84
2023-02-21T20:44:15.361Z,12.84
2023-02-21T20:46:42.730Z,12.85
2023-02-21T20:49:14.170Z,12.80
2023-02-21T20:51:44.068Z,12.84
2023-02-21T20:54:20.155Z,12.53
2023-02-21T20:56:56.779Z,12.57
2023-02-21T20:59:38.881Z,12.70
2023-02-21T21:02:08.294Z,12.62
2023-02-21T21:04:43.292Z,12.55
2023-02-21T21:07:22.362Z,12.53
2023-02-21T21:09:50.868Z,12.53
2023-02-21T21:12:23.502Z,12.31
2023-02-21T21:14:55.521Z,12.49
2023-02-21T21:17:22.899Z,12.34
2023-02-21T21:19:51.047Z,12.00
2023-02-21T21:22:27.207Z,12.11
2023-02-21T21:24:55.530Z,11.87
2023-02-21T21:27:23.900Z,11.81
2023-02-21T21:29:53.724Z,11.86
2023-02-21T21:32:24.590Z,11.49
2023-02-21T21:34:56.753Z,11.64
2023-02-21T21:37:29.307Z,11.67
2023-02-21T21:39:57.259Z,11.54
2023-02-21T21:42:29.233Z,11.61
2023-02-21T21:44:57.659Z,11.58
2023-02-21T21:47:32.108Z,11.61
2023-02-21T21:50:02.356Z,11.42
2023-02-21T21:52:29.946Z,11.43
2023-02-21T21:54:58.247Z,11.40
2023-02-21T21:57:28.447Z,11.44
2023-02-21T21:59:56.162Z,11.36
2023-02-21T22:02:23.517Z,11.39
2023-02-21T22:04:53.352Z,11.32
2023-02-21T22:07:20.889Z,11.28
2023-02-21T22:09:48.153Z,11.24
2023-02-21T22:12:20.963Z,11.22
2023-02-21T22:14:49.953Z,11.08
2023-02-21T22:17:17.320Z,10.94
2023-02-21T22:19:45.358Z,10.88
2023-02-21T22:22:13.681Z,10.98
2023-02-21T22:24:40.997Z,10.96
2023-02-21T22:27:08.307Z,10.96
2023-02-21T22:29:35.929Z,11.04
2023-02-21T22:32:03.291Z,11.13
2023-02-21T22:34:30.623Z,10.79
2023-02-21T22:36:58.573Z,11.08
2023-02-21T22:39:27.132Z,10.70
2023-02-21T22:41:54.794Z,10.87
2023-02-21T22:44:25.031Z,11.00
2023-02-21T22:46:59.753Z,11.00
2023-02-21T22:49:28.780Z,10.81
2023-02-21T22:51:57.654Z,10.98
2023-02-21T22:54:26.751Z,10.92
2023-02-21T22:56:59.768Z,10.68
2023-02-21T22:59:27.237Z,10.66
2023-02-21T23:01:58.309Z,10.82
2023-02-21T23:04:26.352Z,10.95
2023-02-21T23:06:58.251Z,10.75
2023-02-21T23:09:30.157Z,10.90
2023-02-21T23:12:00.571Z,10.89
2023-02-21T23:14:34.954Z,10.92
2023-02-21T23:17:03.329Z,10.68
2023-02-21T23:19:32.167Z,10.55
2023-02-21T23:22:00.032Z,10.53
2023-02-21T23:24:28.303Z,10.40
2023-02-21T23:26:55.757Z,10.40
2023-02-21T23:29:26.161Z,10.45
2023-02-21T23:32:09.267Z,10.43
2023-02-21T23:34:40.649Z,10.51
2023-02-21T23:37:12.420Z,10.39
2023-02-21T23:39:41.877Z,10.05
2023-02-21T23:42:11.007Z,10.11
2023-02-21T23:44:40.021Z,10.11
2023-02-21T23:47:07.420Z,10.11
2023-02-21T23:49:34.753Z,10.21
2023-02-21T23:52:02.172Z,10.10
2023-02-21T23:54:29.642Z,10.04
2023-02-21T23:57:00.659Z,9.93
2023-02-21T23:59:28.809Z,10.04
